createdAt,value
2022-12-31T18:59:56.234Z,5.82
2022-12-31T19:03:27.343Z,6.82
2022-12-31T19:05:58.060Z,8.35
2022-12-31T19:08:28.037Z,8.35
2022-12-31T19:10:58.352Z,5.72
2022-12-31T19:13:28.199Z,5.60
2022-12-31T19:16:49.279Z,7.30
2022-12-31T19:19:20.385Z,5.60
2022-12-31T19:21:50.992Z,5.43
2022-12-31T19:24:24.696Z,6.10
2022-12-31T19:26:55.824Z,6.65
2022-12-31T19:29:28.537Z,7.10
2022-12-31T19:32:02.407Z,7.93
2022-12-31T19:34:33.541Z,10.60
2022-12-31T19:37:04.285Z,6.22
2022-12-31T19:39:35.488Z,5.13
2022-12-31T19:42:06.103Z,5.60
2022-12-31T19:44:37.073Z,9.77
2022-12-31T19:47:13.176Z,4.40
2022-12-31T19:49:44.147Z,5.32
2022-12-31T19:52:14.686Z,6.25
2022-12-31T19:54:45.493Z,8.00
2022-12-31T19:57:15.905Z,6.45
2022-12-31T19:59:46.983Z,4.72
2022-12-31T20:02:18.873Z,5.57
2022-12-31T20:04:49.825Z,5.30
2022-12-31T20:07:26.869Z,3.72
2022-12-31T20:09:58.000Z,4.38
2022-12-31T20:12:29.721Z,5.30
2022-12-31T20:15:00.696Z,4.43
2022-12-31T20:17:32.781Z,7.10
2022-12-31T20:20:03.557Z,4.13
2022-12-31T20:22:34.363Z,4.25
2022-12-31T20:25:06.236Z,6.15
2022-12-31T20:27:37.071Z,4.78
2022-12-31T20:30:10.982Z,4.78
2022-12-31T20:32:43.084Z,4.93
2022-12-31T20:35:13.871Z,4.40
2022-12-31T20:37:44.334Z,3.67
2022-12-31T20:40:16.882Z,5.30
2022-12-31T20:42:47.528Z,4.45
2022-12-31T20:45:18.809Z,4.50
2022-12-31T20:47:50.706Z,4.25
2022-12-31T20:50:21.826Z,4.28
2022-12-31T20:52:52.365Z,5.53
2022-12-31T20:55:24.884Z,4.45
2022-12-31T20:57:55.702Z,5.03
2022-12-31T21:00:26.610Z,4.07
2022-12-31T21:03:10.495Z,5.13
2022-12-31T21:05:50.952Z,6.05
2022-12-31T21:08:22.281Z,5.05
2022-12-31T21:10:53.123Z,6.07
2022-12-31T21:13:23.182Z,5.32
2022-12-31T21:15:55.794Z,4.85
2022-12-31T21:18:28.705Z,4.80
2022-12-31T21:21:00.650Z,4.53
2022-12-31T21:23:31.320Z,4.93
2022-12-31T21:26:02.575Z,4.97
2022-12-31T21:28:33.429Z,6.88
2022-12-31T21:31:07.831Z,4.90
2022-12-31T21:33:40.004Z,6.43
2022-12-31T21:36:11.119Z,5.90
2022-12-31T21:38:41.641Z,5.82
2022-12-31T21:41:35.031Z,7.20
2022-12-31T21:44:06.308Z,7.10
2022-12-31T21:46:37.195Z,6.63
2022-12-31T21:49:09.389Z,5.55
2022-12-31T21:51:53.905Z,5.00
2022-12-31T21:54:38.290Z,6.15
2022-12-31T21:57:09.235Z,7.32
2022-12-31T22:00:23.949Z,5.82
2022-12-31T22:03:05.304Z,5.30
2022-12-31T22:05:38.219Z,5.13
2022-12-31T22:08:09.251Z,5.30
2022-12-31T22:10:44.682Z,6.88
2022-12-31T22:13:20.116Z,5.78
2022-12-31T22:15:58.848Z,5.22
2022-12-31T22:18:38.712Z,5.78
2022-12-31T22:21:18.816Z,7.45
2022-12-31T22:23:52.341Z,5.82
2022-12-31T22:26:25.963Z,5.15
2022-12-31T22:28:59.724Z,5.05
2022-12-31T22:31:32.597Z,7.65
2022-12-31T22:34:03.943Z,5.32
2022-12-31T22:36:36.119Z,7.05
2022-12-31T22:39:06.981Z,6.13
2022-12-31T22:41:37.478Z,7.50
2022-12-31T22:44:08.851Z,6.25
2022-12-31T22:46:39.697Z,5.53
2022-12-31T22:49:12.640Z,5.40
2022-12-31T22:51:55.169Z,5.13
2022-12-31T22:54:54.969Z,7.60
2022-12-31T22:57:25.794Z,6.75
2022-12-31T22:59:56.560Z,6.50
2022-12-31T23:02:27.205Z,6.90
2022-12-31T23:05:16.223Z,6.70
2022-12-31T23:07:48.427Z,8.00
2022-12-31T23:10:36.502Z,10.50
2022-12-31T23:13:24.760Z,10.40
2022-12-31T23:16:13.059Z,10.60
2022-12-31T23:19:05.392Z,15.60
2022-12-31T23:21:54.241Z,19.17
2022-12-31T23:24:29.101Z,19.92
2022-12-31T23:27:00.297Z,23.33
2022-12-31T23:29:30.889Z,23.25
2022-12-31T23:32:01.939Z,20.50
2022-12-31T23:34:32.412Z,18.23
2022-12-31T23:37:04.433Z,20.50
2022-12-31T23:39:36.477Z,20.92
2022-12-31T23:42:07.887Z,17.48
2022-12-31T23:44:39.824Z,18.70
2022-12-31T23:47:11.119Z,20.55
2022-12-31T23:49:41.557Z,17.48
2022-12-31T23:52:12.504Z,20.42
2022-12-31T23:54:44.343Z,17.27
2022-12-31T23:57:15.441Z,13.05
2022-12-31T23:59:45.985Z,10.35
